Puyallup, Washington
Current Conditions -  °F | °C
As of 7:13 PM on Friday 21 Nov 2014 (Local Time) from KTCM Reporting Station
Light Rain Light Rain  
Wind Chill: 52°   Ceiling: 5500
Heat Index: 52°   Visibility: 9mi
Dew Point: 52°   Wind: 21mph
Humidity: 100%   Direction: 200°SSW
Pressure: 29.38"   Gusts: 25mph
Location:  47.19°N, 122.29°W
Report Text: KTCM 220313Z AUTO 20018G22KT 9SM -RA SCT010 SCT048 BKN055 11/11 A2938 RMK AO2 CIG 010 RWY34 $
Loading
Personal Weather Stations






























Interactive Weather Map New forecast layout! Learn more

10-Day Weather Forecast

Advertisements
Track Severe Weather on mobile